Hauptseite
METAR-TAF:

METAR-TAF

Flughäfen :

Flughafen Erfurt-Weimar

Erfurt, Deutschland

Breite: 50-59N, Länge: 010-58E, Höhe: 315 m

Beobachtung

Neuester Wetterbericht von vor 30 Minuten, um 03:50 UTC
Wind 2 kt aus unterschiedlichen Richtungen
Temperatur -7°C
Luftfeuchtigkeit 93%
Luftdruck 1021 hPa
Sichtweite: 8000 m

METAR: EDDE 210350Z VRB02KT 8000 NSC M07/M08 Q1021

Zeit: 05:20 (04:20 UTC)

Prognose

Neuester Wetterbericht von vor 5 Stunden und 20 Minuten, um 23:00 UTC
Gültige Prognose vom 21 um 00 UTC bis 21 um 24 UTC
Wind 3 kt aus unterschiedlichen Richtungen
Sichtweite 10 km oder mehr
Aufgelockert bewölkt in der Höhe von 2500 ft

TAF: EDDE 202300Z 2100/2124 VRB03KT 9999 SCT025

Wetterbeobachtungen und Prognosen von mehr als 4000 Flughäfen (METAR und TAF Bericht).

Die verfügbaren Stationen werden durch gelbe und rote Markierungen auf der Karte dargestellt.

Führen Sie die Maus auf sie, um den Namen der Station zu sehen.

Darauf klicken, um die Beobachtung von Wetterbeobachtungen und Prognosen zu sehen.

Um die Karte zu ändern : klicken Sie auf den grünen Tasten mit einem schwarzen Kreuz Zum Vergrößern, auf den grünen Button mit einem Gedankenstrich zu verkleinern, oder auf die grünen Pfeile für benachbarte Karten.


METAR-TAF: